createdAt,value
2023-02-07T00:00:14.184Z,0.00
2023-02-07T00:01:14.146Z,0.00
2023-02-07T00:02:14.164Z,0.00
2023-02-07T00:03:14.135Z,0.00
2023-02-07T00:04:14.122Z,0.00
2023-02-07T00:05:14.040Z,0.00
2023-02-07T00:06:14.020Z,0.00
2023-02-07T00:07:14.000Z,0.00
2023-02-07T00:08:13.978Z,0.00
2023-02-07T00:09:13.928Z,0.00
2023-02-07T00:10:13.906Z,0.00
2023-02-07T00:11:13.874Z,0.00
2023-02-07T00:12:13.854Z,0.00
2023-02-07T00:13:13.822Z,0.00
2023-02-07T00:14:13.804Z,0.00
2023-02-07T00:15:13.772Z,0.00
2023-02-07T00:16:13.782Z,0.00
2023-02-07T00:17:13.757Z,0.00
2023-02-07T00:18:13.688Z,0.00
2023-02-07T00:19:13.661Z,0.00
2023-02-07T00:20:13.633Z,0.00
2023-02-07T00:21:13.601Z,0.00
2023-02-07T00:22:13.580Z,0.00
2023-02-07T00:23:13.546Z,0.00
2023-02-07T00:24:13.582Z,0.00
2023-02-07T00:25:13.490Z,0.00
2023-02-07T00:26:13.477Z,0.00
2023-02-07T00:27:13.439Z,0.00
2023-02-07T00:28:13.543Z,0.00
2023-02-07T00:29:13.420Z,0.00
2023-02-07T00:30:13.365Z,0.00
2023-02-07T00:31:13.468Z,0.00
2023-02-07T00:32:13.311Z,0.00
2023-02-07T00:33:13.283Z,0.00
2023-02-07T00:34:13.284Z,0.00
2023-02-07T00:35:13.220Z,0.00
2023-02-07T00:36:13.195Z,0.00
2023-02-07T00:37:13.179Z,0.00
2023-02-07T00:38:13.146Z,0.00
2023-02-07T00:39:13.137Z,0.00
2023-02-07T00:40:13.093Z,0.00
2023-02-07T00:41:13.057Z,0.00
2023-02-07T00:42:13.034Z,0.00
2023-02-07T00:43:21.465Z,0.00
2023-02-07T00:44:12.993Z,0.00
2023-02-07T00:45:12.948Z,0.00
2023-02-07T00:46:12.946Z,0.00
2023-02-07T00:47:12.918Z,0.00
2023-02-07T00:48:12.884Z,0.00
2023-02-07T00:49:12.832Z,0.00
2023-02-07T00:50:12.817Z,0.00
2023-02-07T00:51:12.781Z,0.00
2023-02-07T00:52:12.765Z,0.00
2023-02-07T00:53:12.729Z,0.00
2023-02-07T00:54:12.716Z,0.00
2023-02-07T00:55:12.691Z,0.00
2023-02-07T00:56:12.655Z,0.00
2023-02-07T00:57:12.646Z,0.00
2023-02-07T00:58:12.609Z,0.00
2023-02-07T00:59:12.564Z,0.00
2023-02-07T01:00:12.542Z,0.00
2023-02-07T01:01:12.588Z,0.00
2023-02-07T01:02:12.485Z,0.00
2023-02-07T01:03:12.468Z,0.00
2023-02-07T01:04:12.453Z,0.00
2023-02-07T01:05:12.409Z,0.00
2023-02-07T01:06:12.380Z,0.00
2023-02-07T01:07:12.356Z,0.00
2023-02-07T01:08:12.331Z,0.00
2023-02-07T01:09:12.297Z,0.00
2023-02-07T01:10:12.277Z,0.00
2023-02-07T01:11:12.254Z,0.00
2023-02-07T01:12:12.220Z,0.00
2023-02-07T01:13:12.195Z,0.00
2023-02-07T01:14:12.179Z,0.00
2023-02-07T01:15:12.158Z,0.00
2023-02-07T01:16:12.149Z,0.00
2023-02-07T01:17:12.085Z,0.00
2023-02-07T01:18:12.092Z,0.00
2023-02-07T01:19:12.039Z,0.00
2023-02-07T01:20:12.008Z,0.00
2023-02-07T01:21:11.984Z,0.00
2023-02-07T01:22:11.970Z,0.00
2023-02-07T01:23:11.945Z,0.00
2023-02-07T01:24:11.930Z,0.00
2023-02-07T01:25:11.933Z,0.00
2023-02-07T01:26:11.844Z,0.00
2023-02-07T01:27:11.838Z,0.00
2023-02-07T01:28:11.841Z,0.00
2023-02-07T01:29:11.783Z,0.00
2023-02-07T01:30:11.767Z,0.00
2023-02-07T01:31:11.836Z,0.00
2023-02-07T01:32:11.696Z,0.00
2023-02-07T01:33:11.663Z,0.00
2023-02-07T01:34:11.629Z,0.00
2023-02-07T01:35:11.603Z,0.00
2023-02-07T01:36:11.580Z,0.00
2023-02-07T01:37:11.547Z,0.00
2023-02-07T01:38:11.518Z,0.00
2023-02-07T01:39:11.504Z,0.00
2023-02-07T01:40:11.469Z,0.00
2023-02-07T01:41:11.435Z,0.00
2023-02-07T01:42:11.407Z,0.00
2023-02-07T01:43:11.382Z,0.00
2023-02-07T01:44:11.353Z,0.00
2023-02-07T01:45:11.329Z,0.00
2023-02-07T01:46:11.326Z,0.00
2023-02-07T01:47:11.273Z,0.00
2023-02-07T01:48:11.264Z,0.00
2023-02-07T01:49:11.218Z,0.00
2023-02-07T01:50:11.180Z,0.00
2023-02-07T01:51:11.163Z,0.00
2023-02-07T01:52:11.130Z,0.00
2023-02-07T01:53:11.114Z,0.00
2023-02-07T01:54:11.079Z,0.00
2023-02-07T01:55:11.069Z,0.00
2023-02-07T01:56:17.673Z,0.00
2023-02-07T01:57:11.004Z,0.00
2023-02-07T01:58:10.979Z,0.00
2023-02-07T01:59:10.948Z,0.00
2023-02-07T02:00:10.915Z,0.00
2023-02-07T02:01:10.917Z,0.00
2023-02-07T02:02:10.860Z,0.00
2023-02-07T02:03:10.836Z,0.00
2023-02-07T02:04:10.810Z,0.00
2023-02-07T02:05:10.816Z,0.00
2023-02-07T02:06:10.756Z,0.00
2023-02-07T02:07:10.731Z,0.00
2023-02-07T02:08:10.707Z,0.00
2023-02-07T02:09:10.670Z,0.00
2023-02-07T02:10:10.647Z,0.00
2023-02-07T02:11:10.619Z,0.00
2023-02-07T02:12:10.609Z,0.00
2023-02-07T02:13:10.563Z,0.00
2023-02-07T02:14:10.524Z,0.00
2023-02-07T02:15:10.506Z,0.00
2023-02-07T02:16:10.497Z,0.00
2023-02-07T02:17:10.464Z,0.00
2023-02-07T02:18:10.429Z,0.00
2023-02-07T02:19:10.398Z,0.00
2023-02-07T02:20:10.385Z,0.00
2023-02-07T02:21:10.363Z,0.00
2023-02-07T02:22:10.331Z,0.00
2023-02-07T02:23:10.291Z,0.00
2023-02-07T02:24:10.263Z,0.00
2023-02-07T02:25:10.237Z,0.00
2023-02-07T02:26:10.216Z,0.00
2023-02-07T02:27:10.180Z,0.00
2023-02-07T02:28:10.201Z,0.00
2023-02-07T02:29:10.127Z,0.00
2023-02-07T02:30:10.097Z,0.00
2023-02-07T02:31:10.130Z,0.00
2023-02-07T02:32:10.048Z,0.00
2023-02-07T02:33:10.028Z,0.00
2023-02-07T02:34:09.997Z,0.00
2023-02-07T02:35:09.968Z,0.00
2023-02-07T02:36:09.937Z,0.00
2023-02-07T02:37:09.907Z,0.00
2023-02-07T02:38:10.029Z,0.00
2023-02-07T02:39:09.861Z,0.00
2023-02-07T02:40:09.821Z,0.00
2023-02-07T02:41:09.800Z,0.00
2023-02-07T02:42:09.775Z,0.00
2023-02-07T02:43:09.743Z,0.00
2023-02-07T02:44:09.721Z,0.00
2023-02-07T02:45:09.688Z,0.00
2023-02-07T02:46:09.743Z,0.00
2023-02-07T02:47:09.640Z,0.00
2023-02-07T02:48:09.618Z,0.00
2023-02-07T02:49:09.577Z,0.00
2023-02-07T02:50:09.550Z,0.00
2023-02-07T02:51:09.526Z,0.00
2023-02-07T02:52:09.494Z,0.00
2023-02-07T02:53:09.541Z,0.00
2023-02-07T02:54:09.438Z,0.00
2023-02-07T02:55:09.416Z,0.00
2023-02-07T02:56:09.399Z,0.00
2023-02-07T02:57:09.361Z,0.00
2023-02-07T02:58:09.326Z,0.00
2023-02-07T02:59:09.325Z,0.00
2023-02-07T03:00:09.273Z,0.00
2023-02-07T03:01:09.253Z,0.00
2023-02-07T03:02:09.218Z,0.00
2023-02-07T03:03:09.197Z,0.00
2023-02-07T03:04:09.177Z,0.00
2023-02-07T03:05:09.178Z,0.00
2023-02-07T03:06:09.115Z,0.00
2023-02-07T03:07:09.091Z,0.00
2023-02-07T03:08:09.054Z,0.00
2023-02-07T03:09:09.032Z,0.00
2023-02-07T03:10:09.011Z,0.00
2023-02-07T03:11:08.977Z,0.00
2023-02-07T03:12:08.964Z,0.00
2023-02-07T03:13:08.926Z,0.00
2023-02-07T03:14:08.893Z,0.00
2023-02-07T03:15:08.867Z,0.00
2023-02-07T03:16:08.898Z,0.00
2023-02-07T03:17:08.815Z,0.00
2023-02-07T03:18:08.783Z,0.00
2023-02-07T03:19:08.755Z,0.00
2023-02-07T03:20:08.731Z,0.00
2023-02-07T03:21:08.703Z,0.00
2023-02-07T03:22:08.669Z,0.00
2023-02-07T03:23:08.644Z,0.00
2023-02-07T03:24:08.613Z,0.00
2023-02-07T03:25:08.593Z,0.00
2023-02-07T03:26:08.576Z,0.00
2023-02-07T03:27:08.535Z,0.00
2023-02-07T03:28:08.547Z,0.00
2023-02-07T03:29:08.501Z,0.00
2023-02-07T03:30:08.442Z,0.00
2023-02-07T03:31:08.446Z,0.00
2023-02-07T03:32:08.401Z,0.00
2023-02-07T03:33:08.367Z,0.00
2023-02-07T03:34:08.330Z,0.00
2023-02-07T03:35:08.324Z,0.00
2023-02-07T03:36:08.276Z,0.00
2023-02-07T03:37:08.255Z,0.00
2023-02-07T03:38:08.228Z,0.00
2023-02-07T03:39:08.203Z,0.00
2023-02-07T03:40:08.169Z,0.00
2023-02-07T03:41:08.150Z,0.00
2023-02-07T03:42:08.105Z,0.00
2023-02-07T03:43:08.088Z,0.00
2023-02-07T03:44:08.066Z,0.00
2023-02-07T03:45:08.034Z,0.00
2023-02-07T03:46:08.002Z,0.00
2023-02-07T03:47:07.980Z,0.00
2023-02-07T03:48:07.942Z,0.00
2023-02-07T03:49:07.946Z,0.00
2023-02-07T03:50:07.899Z,0.00
2023-02-07T03:51:07.862Z,0.00
2023-02-07T03:52:07.844Z,0.00
2023-02-07T03:53:07.814Z,0.00
2023-02-07T03:54:07.779Z,0.00
2023-02-07T03:55:07.751Z,0.00
2023-02-07T03:56:07.743Z,0.00
2023-02-07T03:57:07.700Z,0.00
2023-02-07T03:58:07.665Z,0.00
2023-02-07T03:59:07.651Z,0.00
2023-02-07T04:00:07.643Z,0.00
2023-02-07T04:01:07.659Z,0.00
2023-02-07T04:02:07.587Z,0.00
2023-02-07T04:03:07.531Z,0.00
2023-02-07T04:04:07.500Z,0.00
2023-02-07T04:05:07.487Z,0.00
2023-02-07T04:06:07.444Z,0.00
2023-02-07T04:07:07.434Z,0.00
2023-02-07T04:08:07.402Z,0.00
2023-02-07T04:09:07.379Z,0.00
2023-02-07T04:10:07.344Z,0.00
2023-02-07T04:11:07.313Z,0.00
2023-02-07T04:12:07.305Z,0.00
2023-02-07T04:13:07.256Z,0.00
2023-02-07T04:14:07.232Z,0.00
2023-02-07T04:15:07.212Z,0.00
2023-02-07T04:16:07.212Z,0.00
2023-02-07T04:17:07.168Z,0.00
2023-02-07T04:18:07.109Z,0.00
2023-02-07T04:19:07.089Z,0.00
2023-02-07T04:20:07.064Z,0.00
2023-02-07T04:21:07.039Z,0.00
2023-02-07T04:22:07.007Z,0.00
2023-02-07T04:23:06.992Z,0.00
2023-02-07T04:24:06.955Z,0.00
2023-02-07T04:25:06.932Z,0.00
2023-02-07T04:26:06.908Z,0.00
2023-02-07T04:27:06.902Z,0.00
2023-02-07T04:28:06.854Z,0.00
2023-02-07T04:29:06.813Z,0.00
2023-02-07T04:30:06.783Z,0.00
2023-02-07T04:31:06.760Z,0.00
2023-02-07T04:32:06.757Z,0.00
2023-02-07T04:33:06.692Z,0.00
2023-02-07T04:34:06.673Z,0.00
2023-02-07T04:35:06.643Z,0.00
2023-02-07T04:36:06.621Z,0.00
2023-02-07T04:37:06.609Z,0.00
2023-02-07T04:38:06.553Z,0.00
2023-02-07T04:39:06.529Z,0.00
2023-02-07T04:40:06.492Z,0.00
2023-02-07T04:41:06.495Z,0.00
2023-02-07T04:42:06.440Z,0.00
2023-02-07T04:43:06.418Z,0.00
2023-02-07T04:44:06.396Z,0.00
2023-02-07T04:45:06.355Z,0.00
2023-02-07T04:46:06.339Z,0.00
2023-02-07T04:47:06.326Z,0.00
2023-02-07T04:48:06.271Z,0.00
2023-02-07T04:49:06.253Z,0.00
2023-02-07T04:50:06.217Z,0.00
2023-02-07T04:51:06.198Z,0.00
2023-02-07T04:52:06.175Z,0.00
2023-02-07T04:53:06.133Z,0.00
2023-02-07T04:54:06.138Z,0.00
2023-02-07T04:55:06.093Z,0.00
2023-02-07T04:56:06.046Z,0.00
2023-02-07T04:57:06.042Z,0.00
2023-02-07T04:58:06.005Z,0.00
2023-02-07T04:59:06.004Z,0.00
2023-02-07T05:00:05.935Z,0.00
2023-02-07T05:01:05.990Z,0.00
2023-02-07T05:02:05.881Z,0.00
2023-02-07T05:03:05.862Z,0.00
2023-02-07T05:04:05.832Z,0.00
2023-02-07T05:05:05.805Z,0.00
2023-02-07T05:06:05.772Z,0.00
2023-02-07T05:07:05.762Z,0.00
2023-02-07T05:08:05.723Z,0.00
2023-02-07T05:09:05.694Z,0.00
2023-02-07T05:10:05.661Z,0.00
2023-02-07T05:11:05.680Z,0.00
2023-02-07T05:12:05.600Z,0.00
2023-02-07T05:13:05.582Z,0.00
2023-02-07T05:14:05.556Z,0.00
2023-02-07T05:15:05.531Z,0.00
2023-02-07T05:16:05.490Z,0.00
2023-02-07T05:17:05.478Z,0.00
2023-02-07T05:18:05.453Z,0.00
2023-02-07T05:19:05.424Z,0.00
2023-02-07T05:20:05.398Z,0.00
2023-02-07T05:21:05.356Z,0.00
2023-02-07T05:22:05.332Z,0.00
2023-02-07T05:23:05.313Z,0.00
2023-02-07T05:24:05.274Z,0.00
2023-02-07T05:25:05.247Z,0.00
2023-02-07T05:26:05.234Z,0.00
2023-02-07T05:27:05.194Z,0.00
2023-02-07T05:28:05.236Z,0.00
2023-02-07T05:29:05.145Z,0.00
2023-02-07T05:30:05.103Z,0.00
2023-02-07T05:31:05.135Z,0.00
2023-02-07T05:32:06.866Z,0.00
2023-02-07T05:33:05.033Z,0.00
2023-02-07T05:34:05.009Z,0.00
2023-02-07T05:35:04.967Z,0.00
2023-02-07T05:36:04.961Z,0.00
2023-02-07T05:37:04.911Z,0.00
2023-02-07T05:38:04.932Z,0.00
2023-02-07T05:39:04.845Z,0.00
2023-02-07T05:40:04.828Z,0.00
2023-02-07T05:41:04.798Z,0.00
2023-02-07T05:42:04.769Z,0.00
2023-02-07T05:43:04.741Z,0.00
2023-02-07T05:44:04.722Z,0.00
2023-02-07T05:45:04.690Z,0.00
2023-02-07T05:46:04.682Z,0.00
2023-02-07T05:47:04.629Z,0.00
2023-02-07T05:48:04.605Z,0.00
2023-02-07T05:49:04.565Z,0.00
2023-02-07T05:50:04.540Z,0.00
2023-02-07T05:51:04.539Z,0.00
2023-02-07T05:52:04.486Z,0.00
2023-02-07T05:53:04.455Z,0.00
2023-02-07T05:54:04.443Z,0.00
2023-02-07T05:55:04.395Z,0.00
2023-02-07T05:56:04.374Z,0.00
2023-02-07T05:57:04.353Z,0.00
2023-02-07T05:58:04.376Z,0.00
2023-02-07T05:59:04.284Z,0.00
2023-02-07T06:00:04.261Z,0.00
2023-02-07T06:01:04.229Z,0.00
2023-02-07T06:02:04.204Z,0.00
2023-02-07T06:03:04.178Z,0.00
2023-02-07T06:04:04.150Z,0.00
2023-02-07T06:05:04.113Z,0.00
2023-02-07T06:06:04.089Z,0.00
2023-02-07T06:07:04.065Z,0.00
2023-02-07T06:08:04.038Z,0.00
2023-02-07T06:09:04.013Z,0.00
2023-02-07T06:10:03.982Z,0.00
2023-02-07T06:11:03.944Z,0.00
2023-02-07T06:12:05.298Z,0.00
2023-02-07T06:13:03.895Z,0.00
2023-02-07T06:14:03.864Z,0.00
2023-02-07T06:15:03.849Z,0.00
2023-02-07T06:16:03.842Z,4.00
2023-02-07T06:17:03.773Z,0.00
2023-02-07T06:18:03.754Z,4.00
2023-02-07T06:19:03.721Z,0.00
2023-02-07T06:20:03.697Z,4.00
2023-02-07T06:21:03.663Z,4.00
2023-02-07T06:22:03.639Z,4.00
2023-02-07T06:23:03.610Z,4.00
2023-02-07T06:24:03.601Z,4.00
2023-02-07T06:25:03.584Z,8.00
2023-02-07T06:26:03.530Z,12.00
2023-02-07T06:27:03.494Z,12.00
2023-02-07T06:28:03.520Z,16.00
2023-02-07T06:29:03.436Z,20.00
2023-02-07T06:30:03.412Z,24.00
2023-02-07T06:31:03.497Z,28.00
2023-02-07T06:32:03.387Z,32.00
2023-02-07T06:33:03.326Z,36.00
2023-02-07T06:34:03.308Z,44.00
2023-02-07T06:35:03.282Z,48.00
2023-02-07T06:36:03.261Z,60.00
2023-02-07T06:37:03.228Z,64.00
2023-02-07T06:38:03.193Z,80.00
2023-02-07T06:39:03.160Z,88.00
2023-02-07T06:40:03.135Z,100.00
2023-02-07T06:41:03.100Z,112.00
2023-02-07T06:42:03.081Z,128.00
2023-02-07T06:43:03.045Z,144.00
2023-02-07T06:44:03.022Z,160.00
2023-02-07T06:45:02.993Z,176.00
2023-02-07T06:46:03.006Z,196.00
2023-02-07T06:47:02.942Z,216.00
2023-02-07T06:48:02.905Z,236.00
2023-02-07T06:49:02.875Z,256.00
2023-02-07T06:50:02.861Z,280.00
2023-02-07T06:51:02.817Z,308.00
2023-02-07T06:52:02.794Z,328.00
2023-02-07T06:53:02.775Z,356.00
2023-02-07T06:54:02.741Z,384.00
2023-02-07T06:55:02.713Z,412.00
2023-02-07T06:56:02.688Z,440.00
2023-02-07T06:57:02.675Z,472.00
2023-02-07T06:58:02.624Z,500.00
2023-02-07T06:59:02.597Z,532.00
2023-02-07T07:00:02.578Z,568.00
2023-02-07T07:01:02.537Z,600.00
2023-02-07T07:02:02.570Z,636.00
2023-02-07T07:03:02.524Z,668.00
2023-02-07T07:04:02.457Z,700.00
2023-02-07T07:05:02.449Z,736.00
2023-02-07T07:06:02.412Z,776.00
2023-02-07T07:07:02.365Z,808.00
2023-02-07T07:08:02.345Z,844.00
2023-02-07T07:09:02.329Z,884.00
2023-02-07T07:10:02.342Z,920.00
2023-02-07T07:11:02.270Z,960.00
2023-02-07T07:12:02.231Z,1000.00
2023-02-07T07:13:02.205Z,1032.00
2023-02-07T07:14:02.180Z,1076.00
2023-02-07T07:15:02.157Z,1112.00
2023-02-07T07:16:02.215Z,1148.00
2023-02-07T07:17:02.106Z,1188.00
2023-02-07T07:18:02.063Z,1224.00
2023-02-07T07:19:02.032Z,1260.00
2023-02-07T07:20:02.008Z,1300.00
2023-02-07T07:21:01.972Z,1332.00
2023-02-07T07:22:01.976Z,1364.00
2023-02-07T07:23:01.931Z,1400.00
2023-02-07T07:24:01.905Z,1436.00
2023-02-07T07:25:01.874Z,1468.00
2023-02-07T07:26:01.833Z,1496.00
2023-02-07T07:27:01.881Z,1532.00
2023-02-07T07:28:01.805Z,1560.00
2023-02-07T07:29:01.750Z,1596.00
2023-02-07T07:30:01.721Z,1628.00
2023-02-07T07:31:01.812Z,1660.00
2023-02-07T07:32:01.669Z,1692.00
2023-02-07T07:33:01.633Z,1728.00
2023-02-07T07:34:01.632Z,1760.00
2023-02-07T07:35:01.580Z,1796.00
2023-02-07T07:36:01.569Z,1824.00
2023-02-07T07:37:01.521Z,1860.00
2023-02-07T07:38:01.497Z,1896.00
2023-02-07T07:39:01.500Z,1928.00
2023-02-07T07:40:01.461Z,1960.00
2023-02-07T07:41:01.404Z,1976.00
2023-02-07T07:42:01.382Z,2004.00
2023-02-07T07:43:01.355Z,2036.00
2023-02-07T07:44:01.325Z,2068.00
2023-02-07T07:45:01.292Z,2108.00
2023-02-07T07:46:01.267Z,2128.00
2023-02-07T07:47:01.231Z,2152.00
2023-02-07T07:48:01.306Z,2164.00
2023-02-07T07:49:01.179Z,2184.00
2023-02-07T07:50:01.153Z,2216.00
2023-02-07T07:51:01.260Z,2236.00
2023-02-07T07:52:01.097Z,2256.00
2023-02-07T07:53:01.063Z,2276.00
2023-02-07T07:54:01.036Z,2304.00
2023-02-07T07:55:01.007Z,2324.00
2023-02-07T07:56:00.983Z,2348.00
2023-02-07T07:57:00.951Z,2376.00
2023-02-07T07:58:00.938Z,2400.00
2023-02-07T07:59:05.946Z,2444.00
2023-02-07T08:00:00.874Z,2492.00
2023-02-07T08:01:00.918Z,2536.00
2023-02-07T08:02:00.826Z,2580.00
2023-02-07T08:03:00.780Z,2616.00
2023-02-07T08:04:00.796Z,2624.00
2023-02-07T08:05:00.735Z,2680.00
2023-02-07T08:06:00.732Z,2772.00
2023-02-07T08:07:00.711Z,2952.00
2023-02-07T08:08:00.649Z,3144.00
2023-02-07T08:09:00.629Z,3244.00
2023-02-07T08:10:00.588Z,3388.00
2023-02-07T08:11:00.573Z,3604.00
2023-02-07T08:12:00.544Z,3800.00
2023-02-07T08:13:00.506Z,3848.00
2023-02-07T08:14:00.477Z,3972.00
2023-02-07T08:15:00.454Z,4136.00
2023-02-07T08:16:00.582Z,4264.00
2023-02-07T08:17:00.391Z,4344.00
2023-02-07T08:18:00.373Z,4432.00
2023-02-07T08:19:00.348Z,4488.00
2023-02-07T08:20:00.321Z,4624.00
2023-02-07T08:21:00.285Z,4676.00
2023-02-07T08:22:00.259Z,4796.00
2023-02-07T08:23:00.233Z,4828.00
2023-02-07T08:24:00.212Z,4968.00
2023-02-07T08:25:00.172Z,5128.00
2023-02-07T08:26:00.153Z,5292.00
2023-02-07T08:27:00.126Z,5340.00
2023-02-07T08:28:01.291Z,5536.00
2023-02-07T08:29:00.103Z,5720.00
2023-02-07T08:30:00.047Z,5872.00
2023-02-07T08:31:00.056Z,5972.00
2023-02-07T08:32:00.015Z,6156.00
2023-02-07T08:32:59.975Z,6432.00
2023-02-07T08:33:59.953Z,6700.00
2023-02-07T08:34:59.914Z,6908.00
2023-02-07T08:35:59.895Z,7280.00
2023-02-07T08:36:59.878Z,7656.00
2023-02-07T08:37:59.837Z,8108.00
2023-02-07T08:38:59.803Z,8540.00
2023-02-07T08:39:59.781Z,8868.00
2023-02-07T08:40:59.749Z,9220.00
2023-02-07T08:41:59.726Z,9504.00
2023-02-07T08:42:59.715Z,9816.00
2023-02-07T08:43:59.681Z,10120.00
2023-02-07T08:44:59.668Z,10424.00
2023-02-07T08:45:59.751Z,10748.00
2023-02-07T08:46:59.662Z,10904.00
2023-02-07T08:47:59.612Z,10344.00
2023-02-07T08:48:59.553Z,9724.00
2023-02-07T08:49:59.523Z,11016.00
2023-02-07T08:50:59.496Z,11908.00
2023-02-07T08:51:59.471Z,11880.00
2023-02-07T08:52:59.439Z,11936.00
2023-02-07T08:54:00.180Z,12060.00
2023-02-07T08:54:59.384Z,12412.00
2023-02-07T08:55:59.518Z,11840.00
2023-02-07T08:56:59.341Z,11276.00
2023-02-07T08:57:59.320Z,12976.00
2023-02-07T08:58:59.295Z,13984.00
2023-02-07T08:59:59.282Z,14304.00
2023-02-07T09:00:59.261Z,14516.00
2023-02-07T09:01:59.247Z,14708.00
2023-02-07T09:02:59.193Z,14952.00
2023-02-07T09:03:59.173Z,15072.00
2023-02-07T09:04:59.127Z,15296.00
2023-02-07T09:05:59.118Z,13816.00
2023-02-07T09:06:59.086Z,13652.00
2023-02-07T09:07:59.061Z,14724.00
2023-02-07T09:08:59.028Z,13808.00
2023-02-07T09:09:59.016Z,14840.00
2023-02-07T09:10:59.012Z,15712.00
2023-02-07T09:11:58.952Z,14360.00
2023-02-07T09:12:58.944Z,12108.00
2023-02-07T09:13:58.903Z,10604.00
2023-02-07T09:14:58.883Z,10668.00
2023-02-07T09:15:58.855Z,12396.00
2023-02-07T09:16:58.863Z,11648.00
2023-02-07T09:17:58.804Z,12108.00
2023-02-07T09:18:58.766Z,14464.00
2023-02-07T09:19:58.749Z,15616.00
2023-02-07T09:20:58.731Z,14332.00
2023-02-07T09:21:58.702Z,12340.00
2023-02-07T09:22:58.674Z,12448.00
2023-02-07T09:23:58.639Z,11416.00
2023-02-07T09:24:58.624Z,12136.00
2023-02-07T09:25:58.658Z,12400.00
2023-02-07T09:26:58.570Z,12636.00
2023-02-07T09:27:58.568Z,17088.00
2023-02-07T09:28:58.509Z,15456.00
2023-02-07T09:29:58.499Z,10324.00
2023-02-07T09:30:58.561Z,12340.00
2023-02-07T09:31:58.582Z,13036.00
2023-02-07T09:32:58.423Z,15268.00
2023-02-07T09:33:58.386Z,20448.00
2023-02-07T09:34:58.373Z,18976.00
2023-02-07T09:35:58.343Z,13548.00
2023-02-07T09:36:58.302Z,6932.00
2023-02-07T09:37:58.304Z,10276.00
2023-02-07T09:38:58.266Z,18240.00
2023-02-07T09:39:58.229Z,13684.00
2023-02-07T09:40:58.217Z,9596.00
2023-02-07T09:41:58.191Z,15176.00
2023-02-07T09:42:58.478Z,13484.00
2023-02-07T09:43:58.332Z,8824.00
2023-02-07T09:44:58.348Z,6416.00
2023-02-07T09:45:58.187Z,10780.00
2023-02-07T09:46:58.051Z,13708.00
2023-02-07T09:47:58.022Z,15676.00
2023-02-07T09:48:58.000Z,14872.00
2023-02-07T09:49:57.990Z,13440.00
2023-02-07T09:50:57.945Z,11684.00
2023-02-07T09:51:57.940Z,14480.00
2023-02-07T09:52:57.894Z,17376.00
2023-02-07T09:53:57.868Z,18624.00
2023-02-07T09:54:57.842Z,19040.00
2023-02-07T09:55:57.812Z,18752.00
2023-02-07T09:56:57.786Z,21664.00
2023-02-07T09:57:57.783Z,19264.00
2023-02-07T09:58:57.740Z,15180.00
2023-02-07T09:59:57.723Z,22016.00
2023-02-07T10:00:57.689Z,26144.00
2023-02-07T10:01:57.661Z,28288.00
2023-02-07T10:02:57.627Z,26816.00
2023-02-07T10:03:57.594Z,24416.00
2023-02-07T10:04:57.573Z,24224.00
2023-02-07T10:06:01.510Z,26176.00
2023-02-07T10:06:57.528Z,27776.00
2023-02-07T10:07:57.510Z,27552.00
2023-02-07T10:08:57.472Z,27808.00
2023-02-07T10:09:57.462Z,28864.00
2023-02-07T10:10:57.431Z,30016.00
2023-02-07T10:11:57.426Z,28960.00
2023-02-07T10:12:57.370Z,27968.00
2023-02-07T10:13:57.339Z,29536.00
2023-02-07T10:14:57.324Z,30528.00
2023-02-07T10:15:57.367Z,31008.00
2023-02-07T10:16:57.264Z,31584.00
2023-02-07T10:17:57.245Z,32064.00
2023-02-07T10:18:57.220Z,32992.00
2023-02-07T10:19:57.181Z,33888.00
2023-02-07T10:20:59.902Z,34688.00
2023-02-07T10:21:57.153Z,35584.00
2023-02-07T10:22:57.131Z,36384.00
2023-02-07T10:23:57.121Z,36704.00
2023-02-07T10:24:57.074Z,37120.00
2023-02-07T10:25:57.056Z,37600.00
2023-02-07T10:26:57.047Z,38144.00
2023-02-07T10:27:57.086Z,38752.00
2023-02-07T10:28:56.981Z,39232.00
2023-02-07T10:29:56.950Z,39904.00
2023-02-07T10:30:57.034Z,40544.00
2023-02-07T10:31:56.892Z,40032.00
2023-02-07T10:32:56.864Z,39872.00
2023-02-07T10:33:56.844Z,40352.00
2023-02-07T10:34:56.810Z,40992.00
2023-02-07T10:35:56.808Z,41056.00
2023-02-07T10:36:56.759Z,41504.00
2023-02-07T10:37:56.733Z,41568.00
2023-02-07T10:39:07.816Z,41888.00
2023-02-07T10:39:56.699Z,41056.00
2023-02-07T10:40:56.661Z,40928.00
2023-02-07T10:41:56.631Z,41184.00
2023-02-07T10:42:56.631Z,41184.00
2023-02-07T10:43:56.603Z,41184.00
2023-02-07T10:44:56.564Z,40256.00
2023-02-07T10:46:00.836Z,40416.00
2023-02-07T10:46:56.533Z,40608.00
2023-02-07T10:47:56.481Z,40352.00
2023-02-07T10:48:56.465Z,39904.00
2023-02-07T10:49:56.436Z,39840.00
2023-02-07T10:50:56.415Z,40000.00
2023-02-07T10:51:56.382Z,40128.00
2023-02-07T10:52:56.372Z,39744.00
2023-02-07T10:53:58.140Z,39712.00
2023-02-07T10:54:56.324Z,39040.00
2023-02-07T10:55:56.294Z,38784.00
2023-02-07T10:57:01.736Z,38240.00
2023-02-07T10:58:02.798Z,37824.00
2023-02-07T10:58:56.222Z,37408.00
2023-02-07T10:59:56.216Z,36672.00
2023-02-07T11:00:56.184Z,36032.00
2023-02-07T11:01:56.251Z,35616.00
2023-02-07T11:02:56.179Z,35680.00
2023-02-07T11:03:56.124Z,35072.00
2023-02-07T11:04:56.082Z,34144.00
2023-02-07T11:05:56.071Z,33120.00
2023-02-07T11:06:56.032Z,32192.00
2023-02-07T11:07:56.029Z,31296.00
2023-02-07T11:08:55.985Z,30592.00
2023-02-07T11:09:55.960Z,29856.00
2023-02-07T11:10:55.962Z,29472.00
2023-02-07T11:11:55.965Z,28544.00
2023-02-07T11:12:55.896Z,27712.00
2023-02-07T11:13:55.878Z,27104.00
2023-02-07T11:14:55.848Z,26240.00
2023-02-07T11:15:55.867Z,25312.00
2023-02-07T11:16:55.827Z,24672.00
2023-02-07T11:17:55.919Z,23904.00
2023-02-07T11:18:55.764Z,23264.00
2023-02-07T11:19:55.744Z,22752.00
2023-02-07T11:20:55.713Z,22304.00
2023-02-07T11:21:55.687Z,21824.00
2023-02-07T11:22:55.665Z,21440.00
2023-02-07T11:23:56.737Z,21024.00
2023-02-07T11:24:55.617Z,20800.00
2023-02-07T11:25:55.594Z,20352.00
2023-02-07T11:26:55.572Z,20064.00
2023-02-07T11:27:55.584Z,19840.00
2023-02-07T11:28:55.531Z,19776.00
2023-02-07T11:29:55.508Z,19488.00
2023-02-07T11:30:55.604Z,19200.00
2023-02-07T11:31:55.457Z,19008.00
2023-02-07T11:32:55.444Z,18848.00
2023-02-07T11:33:55.413Z,18688.00
2023-02-07T11:34:55.397Z,18496.00
2023-02-07T11:35:55.400Z,18400.00
2023-02-07T11:36:55.345Z,18240.00
2023-02-07T11:37:55.320Z,18144.00
2023-02-07T11:38:55.299Z,18112.00
2023-02-07T11:39:55.281Z,17984.00
2023-02-07T11:40:55.254Z,17792.00
2023-02-07T11:41:55.227Z,17664.00
2023-02-07T11:42:55.208Z,17632.00
2023-02-07T11:43:55.192Z,17600.00
2023-02-07T11:44:55.207Z,17472.00
2023-02-07T11:45:55.144Z,17312.00
2023-02-07T11:46:55.121Z,17152.00
2023-02-07T11:47:55.112Z,17088.00
2023-02-07T11:48:55.088Z,16928.00
2023-02-07T11:49:55.069Z,16928.00
2023-02-07T11:50:55.039Z,16832.00
2023-02-07T11:51:55.016Z,16768.00
2023-02-07T11:52:55.034Z,16768.00
2023-02-07T11:53:54.971Z,16704.00
2023-02-07T11:54:54.953Z,16576.00
2023-02-07T11:55:54.930Z,16512.00
2023-02-07T11:56:54.907Z,16340.00
2023-02-07T11:57:54.879Z,16212.00
2023-02-07T11:58:54.870Z,15924.00
2023-02-07T11:59:54.845Z,15984.00
2023-02-07T12:00:54.816Z,16032.00
2023-02-07T12:01:54.858Z,15852.00
2023-02-07T12:02:54.777Z,15708.00
2023-02-07T12:03:54.751Z,15652.00
2023-02-07T12:04:54.857Z,15640.00
2023-02-07T12:05:54.715Z,15548.00
2023-02-07T12:06:54.688Z,15576.00
2023-02-07T12:07:54.665Z,15524.00
2023-02-07T12:08:54.642Z,15380.00
2023-02-07T12:09:54.623Z,15384.00
2023-02-07T12:10:54.606Z,15296.00
2023-02-07T12:11:54.591Z,15288.00
2023-02-07T12:12:54.561Z,15188.00
2023-02-07T12:13:54.536Z,15232.00
2023-02-07T12:14:54.534Z,15156.00
2023-02-07T12:15:54.526Z,15040.00
2023-02-07T12:16:54.497Z,15012.00
2023-02-07T12:17:54.458Z,14940.00
2023-02-07T12:18:54.440Z,14960.00
2023-02-07T12:19:54.416Z,14796.00
2023-02-07T12:20:54.397Z,14744.00
2023-02-07T12:21:54.369Z,14692.00
2023-02-07T12:23:06.462Z,14672.00
2023-02-07T12:23:54.333Z,14644.00
2023-02-07T12:24:54.303Z,14508.00
2023-02-07T12:25:54.277Z,14348.00
2023-02-07T12:26:54.271Z,14248.00
2023-02-07T12:27:54.255Z,14132.00
2023-02-07T12:29:04.077Z,14040.00
2023-02-07T12:29:54.198Z,13912.00
2023-02-07T12:30:54.217Z,13776.00
2023-02-07T12:31:54.273Z,13688.00
2023-02-07T12:32:54.157Z,13592.00
2023-02-07T12:33:54.122Z,13584.00
2023-02-07T12:34:54.098Z,13500.00